Time;durP1;ratioP1;P1;durP2;ratioP2;P2;SDS_P1;SDS_P2;PMS_P1;PMS_P2;Temp;Humidity;BMP_temperature;BMP_pressure;BME280_temperature;BME280_humidity;BME280_pressure;Samples;Min_cycle;Max_cycle;Signal;HPM_P1;HPM_P2
2021/08/20 00:01:55;;;;;;;0.05;0.03;;;18.30;99.90;;;;;;5110261;28;20159;-76
2021/08/20 00:04:21;;;;;;;0.30;0.30;;;18.30;99.90;;;;;;5110211;28;20166;-76
2021/08/20 00:06:47;;;;;;;7.35;0.57;;;18.30;99.90;;;;;;5110008;28;20187;-77
2021/08/20 00:09:13;;;;;;;0.30;0.30;;;18.40;99.90;;;;;;5110150;28;20215;-77
2021/08/20 00:11:40;;;;;;;0.63;0.45;;;18.40;99.90;;;;;;5110137;28;20159;-77
2021/08/20 00:14:08;;;;;;;0.17;0.17;;;18.40;99.90;;;;;;5109695;28;20222;-77
2021/08/20 00:16:35;;;;;;;0.05;0.05;;;18.40;99.90;;;;;;5091653;28;20198;-77
2021/08/20 00:19:02;;;;;;;0.28;0.28;;;18.40;99.90;;;;;;5091499;28;20195;-76
2021/08/20 00:21:29;;;;;;;0.13;0.13;;;18.30;99.90;;;;;;5109747;28;20152;-76
2021/08/20 00:23:55;;;;;;;0.35;0.35;;;18.30;99.90;;;;;;5091236;28;20178;-76
2021/08/20 00:26:20;;;;;;;0.55;0.55;;;18.30;99.90;;;;;;5091328;28;20171;-76
2021/08/20 00:28:46;;;;;;;0.20;0.20;;;18.30;99.90;;;;;;5109567;28;20214;-76
2021/08/20 00:31:12;;;;;;;0.93;0.85;;;18.30;99.90;;;;;;5109665;28;20250;-77
2021/08/20 00:33:38;;;;;;;0.30;0.30;;;18.30;99.90;;;;;;5109427;28;20202;-76
2021/08/20 00:36:05;;;;;;;0.82;0.82;;;18.30;99.90;;;;;;5109266;28;20563;-76
2021/08/20 00:38:37;;;;;;;0.20;0.20;;;18.20;99.90;;;;;;5090999;28;20192;-76
2021/08/20 00:41:04;;;;;;;1.45;0.50;;;18.20;99.90;;;;;;5090821;28;20168;-76
2021/08/20 00:43:31;;;;;;;0.52;0.52;;;18.20;99.90;;;;;;5108715;28;20171;-76
2021/08/20 00:46:01;;;;;;;4.68;1.45;;;18.20;99.90;;;;;;5109124;28;20174;-76
2021/08/20 00:48:30;;;;;;;0.85;0.85;;;18.10;99.90;;;;;;5090745;28;20691;-76
2021/08/20 00:51:14;;;;;;;0.17;0.17;;;18.10;99.90;;;;;;5090974;28;20191;-76
2021/08/20 00:53:40;;;;;;;0.90;0.90;;;18.00;99.90;;;;;;5090798;28;20223;-76
2021/08/20 00:56:09;;;;;;;0.70;0.50;;;18.00;99.90;;;;;;5109281;28;20217;-77
2021/08/20 00:58:35;;;;;;;0.40;0.40;;;18.00;99.90;;;;;;5090720;28;20202;-76
2021/08/20 01:01:03;;;;;;;0.40;0.40;;;18.00;99.90;;;;;;5108507;28;20160;-76
2021/08/20 01:03:30;;;;;;;0.10;0.10;;;17.90;99.90;;;;;;5090911;28;20232;-76
2021/08/20 01:05:57;;;;;;;0.45;0.45;;;18.00;99.90;;;;;;5090691;28;20164;-76
2021/08/20 01:08:24;;;;;;;2.80;1.02;;;17.90;99.90;;;;;;5090887;28;20201;-75
2021/08/20 01:10:51;;;;;;;0.93;0.70;;;17.90;99.90;;;;;;5109240;28;20159;-75
2021/08/20 01:13:18;;;;;;;0.30;0.30;;;18.00;99.90;;;;;;5108377;28;20698;-77
2021/08/20 01:15:46;;;;;;;0.85;0.85;;;18.00;99.90;;;;;;5111727;28;20148;-75
2021/08/20 01:18:23;;;;;;;0.63;0.63;;;18.20;99.90;;;;;;5093843;28;20187;-75
2021/08/20 01:20:50;;;;;;;0.80;0.75;;;18.30;99.90;;;;;;5110016;28;20215;-75
2021/08/20 01:23:18;;;;;;;0.25;0.25;;;18.30;99.90;;;;;;5109223;28;20613;-75
2021/08/20 01:25:48;;;;;;;0.60;0.43;;;18.40;99.90;;;;;;5108828;28;20156;-76
2021/08/20 01:28:14;;;;;;;0.22;0.22;;;18.50;99.90;;;;;;5108685;28;20187;-76
2021/08/20 01:30:40;;;;;;;0.10;0.10;;;18.60;99.90;;;;;;5090326;28;20163;-76
2021/08/20 01:33:06;;;;;;;0.28;0.28;;;18.70;99.90;;;;;;5108655;28;20183;-76
2021/08/20 01:35:33;;;;;;;0.70;0.70;;;18.70;99.90;;;;;;5090094;28;20170;-76
2021/08/20 01:38:00;;;;;;;0.60;0.60;;;18.50;99.90;;;;;;5108494;28;20187;-76
2021/08/20 01:40:26;;;;;;;0.00;0.00;;;18.30;99.90;;;;;;5108753;28;20206;-76
2021/08/20 01:42:52;;;;;;;1.35;1.17;;;18.20;99.90;;;;;;5090262;28;20174;-76
2021/08/20 01:45:19;;;;;;;0.43;0.43;;;18.30;99.90;;;;;;5108226;28;20171;-76
2021/08/20 01:47:45;;;;;;;1.05;0.68;;;18.40;99.90;;;;;;5108454;28;20194;-75
2021/08/20 01:50:12;;;;;;;0.90;0.90;;;18.40;99.90;;;;;;5088277;28;20238;-75
2021/08/20 01:52:39;;;;;;;0.10;0.10;;;18.30;99.90;;;;;;5088056;28;20168;-76
2021/08/20 01:55:07;;;;;;;0.30;0.30;;;18.30;99.90;;;;;;5069884;28;20235;-75
2021/08/20 01:57:43;;;;;;;2.75;1.20;;;18.20;99.90;;;;;;5088282;28;20637;-76
2021/08/20 02:00:10;;;;;;;1.17;0.77;;;18.40;99.90;;;;;;5069893;28;20174;-76
2021/08/20 02:02:36;;;;;;;0.20;0.20;;;18.30;99.90;;;;;;5088112;28;20585;-76
2021/08/20 02:05:03;;;;;;;0.65;0.57;;;18.10;99.90;;;;;;5087860;28;20167;-76
2021/08/20 02:07:34;;;;;;;1.02;1.02;;;18.00;99.90;;;;;;5069808;28;20199;-75
2021/08/20 02:10:03;;;;;;;0.57;0.57;;;17.90;99.90;;;;;;5069728;28;20168;-75
2021/08/20 02:12:29;;;;;;;0.10;0.10;;;17.90;99.90;;;;;;5070832;28;20176;-75
2021/08/20 02:14:55;;;;;;;1.17;0.65;;;18.00;99.90;;;;;;5073863;28;20231;-75
2021/08/20 02:17:21;;;;;;;1.55;1.45;;;18.00;99.90;;;;;;5073742;28;20259;-75
2021/08/20 02:19:47;;;;;;;0.73;0.63;;;17.90;99.90;;;;;;5092023;28;20160;-76
2021/08/20 02:22:13;;;;;;;0.73;0.73;;;17.80;99.90;;;;;;5073924;28;20637;-76
2021/08/20 02:24:39;;;;;;;0.20;0.20;;;17.80;99.90;;;;;;5073773;28;20225;-76
2021/08/20 02:27:05;;;;;;;9.18;1.35;;;17.80;99.90;;;;;;5091863;28;20556;-76
2021/08/20 02:29:31;;;;;;;1.13;1.08;;;17.80;99.90;;;;;;5091856;28;20215;-77
2021/08/20 02:31:57;;;;;;;0.47;0.47;;;17.70;99.90;;;;;;5091785;28;20152;-77
2021/08/20 02:34:22;;;;;;;0.20;0.20;;;17.60;99.90;;;;;;5091505;28;20195;-78
2021/08/20 02:36:49;;;;;;;0.50;0.50;;;17.60;99.90;;;;;;5091744;28;20290;-77
2021/08/20 02:39:15;;;;;;;0.35;0.35;;;17.60;99.90;;;;;;5073595;28;20168;-77
2021/08/20 02:41:40;;;;;;;0.15;0.15;;;17.70;99.90;;;;;;5091967;28;20182;-76
2021/08/20 02:44:07;;;;;;;4.97;0.85;;;17.60;99.90;;;;;;5091439;28;20168;-76
2021/08/20 02:46:33;;;;;;;1.00;0.85;;;17.60;99.90;;;;;;5073577;28;20184;-77
2021/08/20 02:48:58;;;;;;;0.10;0.10;;;17.60;99.90;;;;;;5101004;28;20219;-76
2021/08/20 02:51:24;;;;;;;1.17;1.17;;;17.60;99.90;;;;;;5111519;28;20271;-75
2021/08/20 02:53:51;;;;;;;0.20;0.20;;;17.50;99.90;;;;;;5111305;28;20187;-76
2021/08/20 02:56:16;;;;;;;0.50;0.50;;;17.50;99.90;;;;;;5093071;28;20185;-77
2021/08/20 02:58:42;;;;;;;2.83;1.77;;;17.60;99.90;;;;;;5111440;28;20254;-76
2021/08/20 03:01:08;;;;;;;0.20;0.20;;;17.60;99.90;;;;;;5093191;28;20190;-77
2021/08/20 03:03:34;;;;;;;0.80;0.80;;;17.50;99.90;;;;;;5111253;28;20175;-76
2021/08/20 03:06:00;;;;;;;19.38;1.75;;;17.50;99.90;;;;;;5092783;28;20167;-77
2021/08/20 03:08:26;;;;;;;2.17;1.13;;;17.50;99.90;;;;;;5111132;28;20201;-78
2021/08/20 03:10:53;;;;;;;0.32;0.32;;;17.50;99.90;;;;;;5109552;28;20195;-76
2021/08/20 03:13:19;;;;;;;0.38;0.38;;;17.50;99.90;;;;;;5111050;28;20278;-75
2021/08/20 03:15:45;;;;;;;0.10;0.10;;;17.50;99.90;;;;;;5094658;28;20164;-75
2021/08/20 03:18:11;;;;;;;2.05;0.98;;;17.50;99.90;;;;;;5093453;28;20187;-76
2021/08/20 03:20:36;;;;;;;0.43;0.43;;;17.50;99.90;;;;;;5095604;28;20199;-78
2021/08/20 03:23:03;;;;;;;1.30;1.13;;;17.50;99.90;;;;;;5110807;28;20175;-77
2021/08/20 03:25:29;;;;;;;0.82;0.82;;;17.50;99.90;;;;;;5091440;28;20178;-77
2021/08/20 03:27:55;;;;;;;1.38;1.27;;;17.50;99.90;;;;;;5110593;28;20195;-76
2021/08/20 03:30:23;;;;;;;1.40;1.35;;;17.50;99.90;;;;;;5110578;28;20167;-76
2021/08/20 03:32:49;;;;;;;0.57;0.57;;;17.60;99.90;;;;;;5110213;28;20198;-76
2021/08/20 03:35:15;;;;;;;0.43;0.43;;;17.60;99.90;;;;;;5091939;28;20569;-77
2021/08/20 03:37:41;;;;;;;0.65;0.65;;;17.70;99.90;;;;;;5092151;28;20218;-77
2021/08/20 03:40:09;;;;;;;2.10;0.82;;;17.70;99.90;;;;;;5110462;28;20163;-75
2021/08/20 03:42:35;;;;;;;0.55;0.55;;;17.70;99.90;;;;;;5110339;28;20183;-75
2021/08/20 03:45:01;;;;;;;0.45;0.45;;;17.70;99.90;;;;;;5092144;28;20225;-75
2021/08/20 03:47:26;;;;;;;0.52;0.52;;;17.80;99.90;;;;;;5110440;28;20188;-75
2021/08/20 03:49:52;;;;;;;0.63;0.63;;;17.90;99.90;;;;;;5095295;28;20227;-77
2021/08/20 03:52:18;;;;;;;1.05;1.05;;;17.80;99.90;;;;;;5110582;28;20163;-76
2021/08/20 03:54:44;;;;;;;2.70;0.35;;;17.80;99.90;;;;;;5082410;28;20193;-75
2021/08/20 03:57:10;;;;;;;0.28;0.28;;;17.90;99.90;;;;;;5103124;28;20212;-78
2021/08/20 03:59:36;;;;;;;0.75;0.60;;;17.90;99.90;;;;;;5075110;28;20171;-76
2021/08/20 04:02:03;;;;;;;0.93;0.93;;;17.90;99.90;;;;;;5106244;28;20183;-75
2021/08/20 04:04:29;;;;;;;0.60;0.43;;;17.80;99.90;;;;;;5097217;28;20167;-78
2021/08/20 04:06:55;;;;;;;0.70;0.52;;;17.90;99.90;;;;;;5098217;28;20168;-76
2021/08/20 04:09:21;;;;;;;0.38;0.38;;;17.90;99.90;;;;;;5104439;28;20174;-77
2021/08/20 04:11:47;;;;;;;0.38;0.38;;;17.80;99.90;;;;;;5091830;28;20187;-80
2021/08/20 04:14:14;;;;;;;0.40;0.40;;;17.80;99.90;;;;;;5089691;28;20191;-79
2021/08/20 04:16:40;;;;;;;0.75;0.75;;;17.80;99.90;;;;;;5089798;28;20160;-79
2021/08/20 04:19:06;;;;;;;0.40;0.40;;;17.80;99.90;;;;;;5071455;28;20198;-78
2021/08/20 04:21:32;;;;;;;0.32;0.32;;;17.80;99.90;;;;;;5089345;28;20152;-77
2021/08/20 04:23:58;;;;;;;0.10;0.10;;;17.70;99.90;;;;;;5089389;28;20187;-76
2021/08/20 04:26:25;;;;;;;0.32;0.30;;;17.70;99.90;;;;;;5089394;28;20529;-78
2021/08/20 04:28:51;;;;;;;0.75;0.75;;;17.70;99.90;;;;;;5071371;28;20196;-77
2021/08/20 04:31:19;;;;;;;0.52;0.52;;;17.80;99.90;;;;;;5071006;28;20214;-77
2021/08/20 04:33:45;;;;;;;0.77;0.25;;;17.80;99.90;;;;;;5071016;28;20192;-77
2021/08/20 04:36:12;;;;;;;3.25;0.73;;;17.90;99.90;;;;;;5088927;28;20168;-77
2021/08/20 04:38:39;;;;;;;0.10;0.10;;;17.90;99.90;;;;;;5070756;28;20196;-77
2021/08/20 04:41:07;;;;;;;16.45;1.55;;;17.90;99.90;;;;;;5088945;28;20194;-78
2021/08/20 04:43:34;;;;;;;0.52;0.52;;;18.00;99.90;;;;;;5088760;28;20229;-76
2021/08/20 04:46:00;;;;;;;0.20;0.20;;;18.10;99.90;;;;;;5088997;28;20165;-77
2021/08/20 04:48:26;;;;;;;0.68;0.68;;;18.20;99.90;;;;;;5070734;28;20320;-78
2021/08/20 04:50:53;;;;;;;0.52;0.52;;;18.20;99.90;;;;;;5070797;28;20198;-78
2021/08/20 04:53:19;;;;;;;0.50;0.50;;;18.30;99.90;;;;;;5088999;28;20202;-78
2021/08/20 04:55:46;;;;;;;0.73;0.70;;;18.40;99.90;;;;;;5070646;28;20168;-78
2021/08/20 04:58:12;;;;;;;0.90;0.85;;;18.40;99.90;;;;;;5088598;28;20184;-79
2021/08/20 05:00:44;;;;;;;0.40;0.40;;;18.40;99.90;;;;;;5088431;28;20182;-81
2021/08/20 05:03:10;;;;;;;0.50;0.32;;;18.20;99.90;;;;;;5088755;28;20168;-80
2021/08/20 05:05:36;;;;;;;0.95;0.82;;;18.20;99.90;;;;;;5070688;28;20299;-80
2021/08/20 05:08:04;;;;;;;0.57;0.57;;;18.20;99.90;;;;;;5050481;28;20196;-80
2021/08/20 05:10:31;;;;;;;3.08;1.25;;;18.20;99.90;;;;;;5068312;28;20271;-79
2021/08/20 05:12:56;;;;;;;0.43;0.43;;;18.20;99.90;;;;;;5068417;28;20203;-79
2021/08/20 05:15:26;;;;;;;0.50;0.50;;;18.20;99.90;;;;;;5050343;28;20233;-79
2021/08/20 05:17:53;;;;;;;1.48;1.40;;;18.20;99.90;;;;;;5067038;28;20200;-81
2021/08/20 05:20:20;;;;;;;1.70;1.05;;;18.00;99.90;;;;;;5068423;28;20149;-81
2021/08/20 05:22:49;;;;;;;0.70;0.22;;;17.90;99.90;;;;;;5068680;28;20181;-81
2021/08/20 05:25:15;;;;;;;0.75;0.75;;;18.00;99.90;;;;;;5068539;28;20157;-82
2021/08/20 05:27:42;;;;;;;3.63;1.30;;;18.50;99.90;;;;;;5068530;28;20211;-81
2021/08/20 05:30:09;;;;;;;0.40;0.40;;;19.40;99.90;;;;;;5068445;28;20188;-81
2021/08/20 05:32:35;;;;;;;0.77;0.45;;;19.90;99.90;;;;;;5069672;28;20164;-78
2021/08/20 05:35:07;;;;;;;2.78;1.17;;;20.30;99.90;;;;;;5069311;28;20168;-77
2021/08/20 05:37:33;;;;;;;0.60;0.60;;;20.50;99.90;;;;;;5070588;28;20210;-78
2021/08/20 05:39:59;;;;;;;0.40;0.40;;;20.70;99.90;;;;;;5072463;28;20161;-76
2021/08/20 05:42:25;;;;;;;0.75;0.60;;;21.50;99.90;;;;;;5054242;28;20175;-77
2021/08/20 05:44:51;;;;;;;0.40;0.40;;;21.20;99.90;;;;;;5069074;28;20161;-76
2021/08/20 05:47:17;;;;;;;0.45;0.45;;;20.50;99.90;;;;;;5067563;28;20688;-75
2021/08/20 05:49:43;;;;;;;5.00;0.70;;;20.30;99.90;;;;;;5083897;28;20314;-75
2021/08/20 05:52:09;;;;;;;0.43;0.43;;;20.00;99.90;;;;;;5069926;28;20633;-75
2021/08/20 05:54:35;;;;;;;1.23;0.52;;;19.80;99.90;;;;;;5086501;28;20597;-75
2021/08/20 05:57:01;;;;;;;2.28;0.30;;;19.90;99.90;;;;;;5069565;28;20164;-75
2021/08/20 05:59:27;;;;;;;1.70;1.58;;;20.20;99.90;;;;;;5069644;28;20167;-75
2021/08/20 06:01:53;;;;;;;1.75;0.75;;;20.20;99.90;;;;;;5069535;28;20176;-75
2021/08/20 06:04:19;;;;;;;0.30;0.30;;;20.30;99.90;;;;;;5087697;28;20525;-75
2021/08/20 06:06:45;;;;;;;0.25;0.25;;;20.30;99.90;;;;;;5086307;28;20217;-76
2021/08/20 06:09:11;;;;;;;0.15;0.13;;;20.40;99.90;;;;;;5086513;28;20516;-75
2021/08/20 06:11:37;;;;;;;0.35;0.35;;;20.50;99.90;;;;;;5087748;28;20156;-75
2021/08/20 06:14:03;;;;;;;0.47;0.47;;;20.40;99.90;;;;;;5087653;28;20195;-76
2021/08/20 06:16:29;;;;;;;0.30;0.30;;;20.40;99.90;;;;;;5087631;28;20175;-75
2021/08/20 06:18:55;;;;;;;1.15;0.90;;;20.60;99.90;;;;;;5069489;28;20199;-78
2021/08/20 06:21:21;;;;;;;0.70;0.70;;;20.60;99.90;;;;;;5087519;28;20160;-76
2021/08/20 06:23:47;;;;;;;0.30;0.30;;;20.60;99.90;;;;;;5087688;28;20167;-75
2021/08/20 06:26:13;;;;;;;0.93;0.93;;;20.70;99.90;;;;;;5086212;28;20179;-76
2021/08/20 06:28:38;;;;;;;0.82;0.60;;;21.00;99.90;;;;;;5069176;28;20334;-76
2021/08/20 06:31:04;;;;;;;1.80;0.90;;;20.90;99.90;;;;;;5069254;28;20687;-75
2021/08/20 06:33:34;;;;;;;0.40;0.40;;;20.90;99.90;;;;;;5087388;28;20239;-75
2021/08/20 06:36:01;;;;;;;0.15;0.15;;;20.70;99.90;;;;;;5069297;28;20214;-77
2021/08/20 06:38:27;;;;;;;0.30;0.30;;;20.70;99.90;;;;;;5069202;28;20195;-75
2021/08/20 06:40:53;;;;;;;0.57;0.57;;;20.90;99.90;;;;;;5087371;28;20193;-76
2021/08/20 06:43:20;;;;;;;1.35;0.47;;;20.90;99.90;;;;;;5087553;28;20166;-76
2021/08/20 06:45:46;;;;;;;0.10;0.10;;;20.80;99.90;;;;;;5085983;28;20167;-75
2021/08/20 06:48:15;;;;;;;3.95;0.65;;;20.70;99.90;;;;;;5085587;28;20231;-76
2021/08/20 06:50:42;;;;;;;1.73;1.38;;;20.80;99.90;;;;;;5069017;28;20199;-74
2021/08/20 06:53:12;;;;;;;0.68;0.68;;;21.90;99.90;;;;;;5068996;28;20191;-75
2021/08/20 06:55:38;;;;;;;0.65;0.65;;;22.30;99.90;;;;;;5069222;28;20159;-74
2021/08/20 06:58:04;;;;;;;0.35;0.35;;;22.80;99.90;;;;;;5069121;28;20243;-75
2021/08/20 07:00:30;;;;;;;1.05;0.95;;;23.40;99.90;;;;;;5089873;28;20531;-75
2021/08/20 07:02:56;;;;;;;0.77;0.77;;;23.30;99.90;;;;;;5090930;28;20195;-75
2021/08/20 07:05:22;;;;;;;2.15;1.08;;;23.30;99.90;;;;;;5090886;28;20209;-74
2021/08/20 07:07:48;;;;;;;0.93;0.80;;;23.30;99.90;;;;;;5090778;28;20172;-75
2021/08/20 07:10:16;;;;;;;2.30;0.93;;;24.40;99.90;;;;;;5072525;28;20166;-75
2021/08/20 07:12:43;;;;;;;0.20;0.10;;;23.90;99.90;;;;;;5072332;28;20189;-75
2021/08/20 07:15:11;;;;;;;0.30;0.30;;;25.20;99.90;;;;;;5090610;28;20155;-74
2021/08/20 07:17:37;;;;;;;0.25;0.25;;;26.20;99.90;;;;;;5090639;28;20525;-75
2021/08/20 07:20:05;;;;;;;1.20;1.10;;;27.20;99.90;;;;;;5090552;28;20167;-74
2021/08/20 07:22:30;;;;;;;6.32;0.90;;;26.60;99.90;;;;;;5090851;28;20170;-75
2021/08/20 07:24:56;;;;;;;0.35;0.35;;;26.90;99.90;;;;;;5090457;28;20219;-74
2021/08/20 07:27:23;;;;;;;5.35;0.47;;;27.10;99.90;;;;;;5072534;28;20198;-75
2021/08/20 07:29:49;;;;;;;1.00;0.90;;;27.00;99.90;;;;;;5071914;28;20206;-74
2021/08/20 07:32:16;;;;;;;1.23;0.95;;;27.30;99.90;;;;;;5090614;28;20176;-74
2021/08/20 07:34:43;;;;;;;0.65;0.60;;;26.00;99.90;;;;;;5090228;28;20193;-73
2021/08/20 07:37:09;;;;;;;0.20;0.20;;;25.90;99.90;;;;;;5072087;28;20163;-73
2021/08/20 07:39:36;;;;;;;0.90;0.70;;;25.20;99.90;;;;;;5090180;28;20184;-74
2021/08/20 07:42:05;;;;;;;0.47;0.47;;;24.50;99.90;;;;;;5072270;28;20160;-74
2021/08/20 07:44:31;;;;;;;0.60;0.60;;;25.50;99.90;;;;;;5090271;28;20171;-74
2021/08/20 07:46:57;;;;;;;0.38;0.38;;;26.60;99.90;;;;;;5090091;28;20213;-74
2021/08/20 07:49:23;;;;;;;0.22;0.22;;;27.40;99.90;;;;;;5089669;28;20231;-74
2021/08/20 07:51:49;;;;;;;0.70;0.63;;;26.80;99.90;;;;;;5089849;28;20215;-74
2021/08/20 07:54:16;;;;;;;0.65;0.65;;;26.90;99.90;;;;;;5089695;28;20221;-74
2021/08/20 07:56:42;;;;;;;2.72;1.42;;;27.70;99.90;;;;;;5071530;28;20171;-73
2021/08/20 07:59:07;;;;;;;0.82;0.82;;;27.40;99.90;;;;;;5089699;28;20191;-73
2021/08/20 08:01:34;;;;;;;2.92;0.95;;;26.00;99.90;;;;;;5089646;28;20187;-73
2021/08/20 08:04:00;;;;;;;0.35;0.30;;;26.10;99.90;;;;;;5072150;28;20237;-74
2021/08/20 08:06:27;;;;;;;0.68;0.68;;;27.30;99.90;;;;;;5090592;28;20164;-73
2021/08/20 08:08:53;;;;;;;0.85;0.43;;;27.30;99.90;;;;;;5072203;28;20797;-72
2021/08/20 08:11:19;;;;;;;0.45;0.45;;;27.90;99.90;;;;;;5089419;28;20173;-73
2021/08/20 08:13:46;;;;;;;1.20;1.02;;;28.30;99.90;;;;;;5071486;28;20723;-74
2021/08/20 08:16:12;;;;;;;0.60;0.60;;;27.90;99.90;;;;;;5089751;28;20179;-74
2021/08/20 08:18:38;;;;;;;0.50;0.50;;;25.90;99.90;;;;;;5088168;28;20202;-72
2021/08/20 08:21:04;;;;;;;1.02;0.32;;;25.60;99.90;;;;;;5071589;28;20178;-73
2021/08/20 08:23:30;;;;;;;0.35;0.35;;;25.90;99.90;;;;;;5089749;28;20175;-74
2021/08/20 08:25:56;;;;;;;2.03;0.77;;;27.20;99.90;;;;;;5089445;28;20156;-74
2021/08/20 08:28:23;;;;;;;0.50;0.32;;;27.60;99.90;;;;;;5071029;28;20221;-74
2021/08/20 08:30:50;;;;;;;0.32;0.32;;;27.60;99.90;;;;;;5086643;28;20269;-74
2021/08/20 08:33:17;;;;;;;0.80;0.52;;;27.50;99.90;;;;;;5089105;28;20211;-74
2021/08/20 08:35:44;;;;;;;2.28;0.77;;;27.80;99.90;;;;;;5093277;28;20212;-74
2021/08/20 08:38:15;;;;;;;0.75;0.75;;;27.40;99.90;;;;;;5089305;28;20187;-74
2021/08/20 08:40:47;;;;;;;0.52;0.52;;;28.10;99.90;;;;;;5109687;28;20162;-74
2021/08/20 08:43:15;;;;;;;1.45;0.43;;;28.10;99.90;;;;;;5108934;28;20202;-73
2021/08/20 08:45:41;;;;;;;0.73;0.70;;;28.30;99.90;;;;;;5091428;28;20167;-73
2021/08/20 08:48:11;;;;;;;0.50;0.50;;;26.30;99.90;;;;;;5109001;28;20221;-73
2021/08/20 08:50:38;;;;;;;0.88;0.40;;;26.10;99.90;;;;;;5109390;28;20197;-74
2021/08/20 08:53:05;;;;;;;1.85;1.00;;;26.90;99.90;;;;;;5109379;28;20190;-74
2021/08/20 08:55:31;;;;;;;0.47;0.47;;;26.80;99.90;;;;;;5109219;28;20158;-73
2021/08/20 08:57:57;;;;;;;0.38;0.38;;;26.80;99.90;;;;;;5108807;28;20187;-73
2021/08/20 09:00:32;;;;;;;0.57;0.57;;;27.80;99.90;;;;;;5109302;28;20219;-73
2021/08/20 09:02:58;;;;;;;0.35;0.32;;;28.20;99.90;;;;;;5109330;28;20669;-73
2021/08/20 09:05:24;;;;;;;0.10;0.10;;;27.80;99.90;;;;;;5109092;28;20163;-73
2021/08/20 09:07:52;;;;;;;2.20;0.77;;;29.00;99.90;;;;;;5090554;28;20201;-74
2021/08/20 09:10:27;;;;;;;0.40;0.40;;;29.70;99.90;;;;;;5090708;28;20186;-73
2021/08/20 09:12:54;;;;;;;1.65;0.73;;;30.00;99.90;;;;;;5090658;28;20180;-74
2021/08/20 09:15:23;;;;;;;0.93;0.70;;;29.60;99.90;;;;;;5108867;28;20526;-72
2021/08/20 09:17:55;;;;;;;2.72;0.47;;;28.70;99.90;;;;;;5090425;28;20198;-73
2021/08/20 09:20:30;;;;;;;0.52;0.52;;;27.00;99.90;;;;;;5108967;28;20162;-73
2021/08/20 09:22:58;;;;;;;0.43;0.43;;;26.50;99.90;;;;;;5107836;28;20196;-73
2021/08/20 09:25:39;;;;;;;0.30;0.30;;;26.10;99.90;;;;;;5108878;28;20174;-74
2021/08/20 09:28:10;;;;;;;1.05;0.57;;;26.10;99.90;;;;;;5090266;28;20282;-74
2021/08/20 09:30:36;;;;;;;0.65;0.65;;;26.00;99.90;;;;;;5108900;28;20634;-78
2021/08/20 09:33:02;;;;;;;1.67;0.43;;;26.20;99.90;;;;;;5090296;28;20190;-76
2021/08/20 09:35:38;;;;;;;0.85;0.57;;;27.20;99.90;;;;;;5108613;28;20152;-76
2021/08/20 09:38:10;;;;;;;1.48;1.27;;;27.80;99.90;;;;;;5108525;28;20253;-78
2021/08/20 09:40:36;;;;;;;0.93;0.93;;;27.60;99.90;;;;;;5108151;28;20159;-77
2021/08/20 09:43:20;;;;;;;0.40;0.40;;;28.00;99.90;;;;;;5108618;28;20196;-76
2021/08/20 09:46:06;;;;;;;1.15;0.35;;;27.80;99.90;;;;;;5108633;28;20163;-77
2021/08/20 09:48:45;;;;;;;0.98;0.45;;;27.80;99.90;;;;;;5108201;28;20226;-76
2021/08/20 09:51:32;;;;;;;0.57;0.57;;;28.60;99.90;;;;;;5108553;28;20197;-77
2021/08/20 09:54:14;;;;;;;1.00;0.73;;;30.00;99.90;;;;;;5079527;28;20209;-76
2021/08/20 09:56:41;;;;;;;0.10;0.10;;;30.30;99.90;;;;;;5108392;28;20182;-77
2021/08/20 09:59:10;;;;;;;0.95;0.82;;;29.30;99.90;;;;;;5108103;28;20210;-77
2021/08/20 10:01:41;;;;;;;3.25;0.73;;;27.60;99.90;;;;;;5090064;28;20231;-76
2021/08/20 10:04:14;;;;;;;2.38;1.27;;;28.10;99.90;;;;;;5090041;28;20162;-77
2021/08/20 10:06:43;;;;;;;1.38;1.08;;;29.00;99.90;;;;;;5108319;28;20163;-76
2021/08/20 10:09:10;;;;;;;2.17;0.77;;;29.50;99.90;;;;;;5107822;28;20595;-76
2021/08/20 10:11:50;;;;;;;0.38;0.30;;;30.00;99.90;;;;;;5089882;28;20173;-76
2021/08/20 10:14:17;;;;;;;1.83;0.70;;;29.90;99.90;;;;;;5107987;28;20190;-76
2021/08/20 10:16:44;;;;;;;1.10;0.65;;;27.70;99.90;;;;;;5108267;28;20194;-75
2021/08/20 10:19:11;;;;;;;0.80;0.75;;;28.40;99.90;;;;;;5108012;28;20194;-75
2021/08/20 10:21:42;;;;;;;0.28;0.20;;;29.30;99.90;;;;;;5089802;28;20202;-74
2021/08/20 10:24:10;;;;;;;0.70;0.70;;;30.10;99.90;;;;;;5089751;28;20170;-75
2021/08/20 10:26:47;;;;;;;0.43;0.30;;;30.60;99.90;;;;;;5108142;28;20175;-76
2021/08/20 10:29:15;;;;;;;0.50;0.50;;;30.30;99.90;;;;;;5092380;28;20205;-76
2021/08/20 10:31:42;;;;;;;0.75;0.65;;;30.00;99.90;;;;;;5111043;28;20176;-76
2021/08/20 10:34:30;;;;;;;0.75;0.75;;;30.80;99.90;;;;;;5111726;28;20246;-76
2021/08/20 10:37:05;;;;;;;5.50;0.55;;;30.90;99.90;;;;;;5112003;28;20166;-76
2021/08/20 10:39:31;;;;;;;0.43;0.40;;;31.50;99.90;;;;;;5093155;28;20158;-76
2021/08/20 10:42:04;;;;;;;0.95;0.88;;;31.00;99.90;;;;;;5111809;28;20170;-76
2021/08/20 10:44:44;;;;;;;0.52;0.45;;;31.00;99.90;;;;;;5111881;28;20219;-76
2021/08/20 10:47:27;;;;;;;0.85;0.68;;;31.00;99.90;;;;;;5111786;28;20680;-76
2021/08/20 10:50:16;;;;;;;1.92;0.50;;;30.30;99.90;;;;;;5111430;28;20222;-77
2021/08/20 10:52:52;;;;;;;0.75;0.75;;;29.90;99.90;;;;;;5111808;28;20180;-75
2021/08/20 10:55:30;;;;;;;0.88;0.80;;;31.10;99.90;;;;;;5093533;28;20166;-75
2021/08/20 10:57:59;;;;;;;0.55;0.55;;;30.60;99.90;;;;;;5111653;28;20182;-76
2021/08/20 11:00:31;;;;;;;0.20;0.20;;;30.20;99.90;;;;;;5093572;28;20170;-75
2021/08/20 11:03:02;;;;;;;0.50;0.50;;;29.60;99.90;;;;;;5093404;28;20175;-76
2021/08/20 11:05:43;;;;;;;0.60;0.60;;;28.70;99.90;;;;;;5111035;28;20158;-75
2021/08/20 11:08:27;;;;;;;1.08;0.75;;;28.50;99.90;;;;;;5083854;28;20290;-77
2021/08/20 11:10:58;;;;;;;0.20;0.20;;;28.80;99.90;;;;;;5093222;28;20175;-77
2021/08/20 11:13:25;;;;;;;0.10;0.10;;;28.60;99.90;;;;;;5072918;28;20199;-77
2021/08/20 11:15:53;;;;;;;0.77;0.50;;;27.80;99.90;;;;;;5090781;28;20144;-76
2021/08/20 11:18:47;;;;;;;0.63;0.32;;;28.70;99.90;;;;;;5090927;28;20187;-76
2021/08/20 11:21:44;;;;;;;0.20;0.20;;;30.30;99.90;;;;;;5072726;28;20172;-74
2021/08/20 11:24:20;;;;;;;2.33;0.88;;;30.90;99.90;;;;;;5090490;28;20242;-77
2021/08/20 11:26:46;;;;;;;0.22;0.22;;;30.90;99.90;;;;;;5090590;28;20480;-76
2021/08/20 11:29:14;;;;;;;0.35;0.30;;;30.70;99.90;;;;;;5072565;28;20198;-76
2021/08/20 11:31:41;;;;;;;1.55;0.60;;;30.80;99.90;;;;;;5090323;28;20156;-76
2021/08/20 11:34:07;;;;;;;0.30;0.30;;;30.00;99.90;;;;;;5072307;28;20199;-76
2021/08/20 11:36:33;;;;;;;0.43;0.43;;;30.20;99.90;;;;;;5090529;28;20186;-76
2021/08/20 11:39:01;;;;;;;0.10;0.10;;;31.20;99.90;;;;;;5090397;28;20210;-76
2021/08/20 11:41:35;;;;;;;0.20;0.20;;;32.00;99.90;;;;;;5090252;28;20167;-75
2021/08/20 11:44:04;;;;;;;2.20;1.48;;;32.60;99.90;;;;;;5090213;28;20178;-73
2021/08/20 11:46:37;;;;;;;4.45;0.75;;;30.90;99.90;;;;;;5102475;28;20197;-74
2021/08/20 11:49:04;;;;;;;1.92;1.40;;;31.70;99.90;;;;;;5110065;28;20706;-74
2021/08/20 11:51:32;;;;;;;0.35;0.35;;;31.80;99.90;;;;;;5091887;28;20171;-74
2021/08/20 11:54:01;;;;;;;1.08;0.47;;;31.70;99.90;;;;;;5091729;28;20671;-75
2021/08/20 11:56:28;;;;;;;0.68;0.68;;;30.40;99.80;;;;;;5110134;28;20573;-73
2021/08/20 11:58:54;;;;;;;0.35;0.35;;;30.10;99.90;;;;;;5091936;28;20269;-73
2021/08/20 12:01:28;;;;;;;0.70;0.22;;;30.80;99.90;;;;;;5091949;28;20158;-73
2021/08/20 12:03:59;;;;;;;2.22;0.93;;;30.90;99.90;;;;;;5110260;28;20158;-75
2021/08/20 12:06:28;;;;;;;0.20;0.20;;;29.60;99.90;;;;;;5110056;28;20166;-75
2021/08/20 12:08:57;;;;;;;0.52;0.52;;;29.90;99.90;;;;;;5110025;28;20701;-75
2021/08/20 12:11:27;;;;;;;0.73;0.57;;;30.20;99.90;;;;;;5091805;28;20216;-74
2021/08/20 12:13:55;;;;;;;0.32;0.20;;;31.40;99.90;;;;;;5091413;28;20202;-74
2021/08/20 12:16:54;;;;;;;0.30;0.30;;;31.20;98.80;;;;;;5109478;28;20243;-73
2021/08/20 12:19:23;;;;;;;2.13;0.57;;;30.50;99.90;;;;;;5026871;28;20185;-74
2021/08/20 12:22:07;;;;;;;0.35;0.35;;;29.40;99.90;;;;;;5010927;28;20228;-74
2021/08/20 12:24:44;;;;;;;1.95;0.30;;;28.00;99.90;;;;;;5010774;28;20197;-74
2021/08/20 12:27:22;;;;;;;1.38;0.98;;;27.10;99.90;;;;;;5027145;28;20173;-74
2021/08/20 12:29:57;;;;;;;0.30;0.30;;;26.40;99.90;;;;;;5026945;28;20185;-74
2021/08/20 12:32:23;;;;;;;0.65;0.40;;;26.50;99.90;;;;;;5027108;28;20270;-75
2021/08/20 12:34:59;;;;;;;0.35;0.35;;;26.60;99.90;;;;;;5011250;28;20201;-75
2021/08/20 12:37:26;;;;;;;0.13;0.13;;;26.70;99.90;;;;;;5027424;28;20271;-75
2021/08/20 12:40:09;;;;;;;0.22;0.22;;;26.70;99.90;;;;;;5027351;28;20656;-74
2021/08/20 12:42:53;;;;;;;0.73;0.65;;;26.80;99.90;;;;;;5027019;28;20192;-76
2021/08/20 12:45:22;;;;;;;1.23;1.05;;;27.00;99.90;;;;;;5010547;28;20307;-76
2021/08/20 12:48:09;;;;;;;0.57;0.47;;;26.70;99.90;;;;;;5026737;28;20197;-76
2021/08/20 12:50:37;;;;;;;0.47;0.30;;;26.70;99.90;;;;;;5010412;28;20220;-77
2021/08/20 12:53:06;;;;;;;2.83;0.52;;;26.60;99.90;;;;;;5026560;28;20240;-75
2021/08/20 12:55:38;;;;;;;0.50;0.50;;;26.70;99.90;;;;;;5047106;28;20203;-74